sensor_id;sensor_type;location;lat;lon;timestamp;pressure;altitude;pressure_sealevel;temperature
71807;BMP280;59655;42.590;23.364;2023-06-05T00:01:54;91976.75;;;14.50
71807;BMP280;59655;42.590;23.364;2023-06-05T00:04:19;91972.91;;;14.61
71807;BMP280;59655;42.590;23.364;2023-06-05T00:06:46;91973.22;;;14.65
71807;BMP280;59655;42.590;23.364;2023-06-05T00:09:12;91972.91;;;14.61
71807;BMP280;59655;42.590;23.364;2023-06-05T00:11:39;91975.44;;;14.59
71807;BMP280;59655;42.590;23.364;2023-06-05T00:14:04;91977.00;;;14.62
71807;BMP280;59655;42.590;23.364;2023-06-05T00:16:30;91977.53;;;14.61
71807;BMP280;59655;42.590;23.364;2023-06-05T00:18:56;91977.78;;;14.55
71807;BMP280;59655;42.590;23.364;2023-06-05T00:21:21;91981.88;;;14.56
71807;BMP280;59655;42.590;23.364;2023-06-05T00:23:48;91985.47;;;14.51
71807;BMP280;59655;42.590;23.364;2023-06-05T00:26:13;91983.00;;;14.70
71807;BMP280;59655;42.590;23.364;2023-06-05T00:28:39;91980.09;;;14.76
71807;BMP280;59655;42.590;23.364;2023-06-05T00:31:06;91982.19;;;14.78
71807;BMP280;59655;42.590;23.364;2023-06-05T00:33:31;91977.78;;;14.72
71807;BMP280;59655;42.590;23.364;2023-06-05T00:35:57;91985.72;;;14.80
71807;BMP280;59655;42.590;23.364;2023-06-05T00:38:22;91983.22;;;14.82
71807;BMP280;59655;42.590;23.364;2023-06-05T00:40:48;91975.34;;;14.84
71807;BMP280;59655;42.590;23.364;2023-06-05T00:43:13;91980.78;;;14.77
71807;BMP280;59655;42.590;23.364;2023-06-05T00:45:39;91978.84;;;14.77
71807;BMP280;59655;42.590;23.364;2023-06-05T00:48:04;91980.69;;;14.67
71807;BMP280;59655;42.590;23.364;2023-06-05T00:50:31;91977.41;;;14.76
71807;BMP280;59655;42.590;23.364;2023-06-05T00:52:58;91972.53;;;14.82
71807;BMP280;59655;42.590;23.364;2023-06-05T00:55:26;91968.16;;;14.77
71807;BMP280;59655;42.590;23.364;2023-06-05T00:57:51;91965.47;;;14.77
71807;BMP280;59655;42.590;23.364;2023-06-05T01:00:17;91959.72;;;14.81
71807;BMP280;59655;42.590;23.364;2023-06-05T01:02:43;91953.19;;;14.74
71807;BMP280;59655;42.590;23.364;2023-06-05T01:05:09;91950.53;;;14.74
71807;BMP280;59655;42.590;23.364;2023-06-05T01:07:35;91947.47;;;14.60
71807;BMP280;59655;42.590;23.364;2023-06-05T01:10:05;91956.19;;;14.61
71807;BMP280;59655;42.590;23.364;2023-06-05T01:12:50;91948.16;;;14.61
71807;BMP280;59655;42.590;23.364;2023-06-05T01:15:18;91953.84;;;14.65
71807;BMP280;59655;42.590;23.364;2023-06-05T01:17:44;91947.31;;;14.58
71807;BMP280;59655;42.590;23.364;2023-06-05T01:20:12;91947.63;;;14.62
71807;BMP280;59655;42.590;23.364;2023-06-05T01:22:38;91945.59;;;14.53
71807;BMP280;59655;42.590;23.364;2023-06-05T01:25:07;91941.31;;;14.50
71807;BMP280;59655;42.590;23.364;2023-06-05T01:27:59;91939.84;;;14.57
71807;BMP280;59655;42.590;23.364;2023-06-05T01:30:27;91939.84;;;14.57
71807;BMP280;59655;42.590;23.364;2023-06-05T01:32:57;91930.50;;;14.65
71807;BMP280;59655;42.590;23.364;2023-06-05T01:35:29;91938.28;;;14.71
71807;BMP280;59655;42.590;23.364;2023-06-05T01:38:00;91938.91;;;14.62
71807;BMP280;59655;42.590;23.364;2023-06-05T01:40:27;91945.41;;;14.51
71807;BMP280;59655;42.590;23.364;2023-06-05T01:42:54;91946.13;;;14.51
71807;BMP280;59655;42.590;23.364;2023-06-05T01:45:20;91946.59;;;14.58
71807;BMP280;59655;42.590;23.364;2023-06-05T01:47:46;91941.97;;;14.58
71807;BMP280;59655;42.590;23.364;2023-06-05T01:50:15;91939.16;;;14.56
71807;BMP280;59655;42.590;23.364;2023-06-05T01:52:41;91937.81;;;14.47
71807;BMP280;59655;42.590;23.364;2023-06-05T01:55:08;91923.59;;;14.45
71807;BMP280;59655;42.590;23.364;2023-06-05T01:57:37;91928.63;;;14.41
71807;BMP280;59655;42.590;23.364;2023-06-05T02:00:03;91933.97;;;14.41
71807;BMP280;59655;42.590;23.364;2023-06-05T02:02:33;91931.91;;;14.32
71807;BMP280;59655;42.590;23.364;2023-06-05T02:04:59;91930.00;;;14.42
71807;BMP280;59655;42.590;23.364;2023-06-05T02:07:24;91927.03;;;14.38
71807;BMP280;59655;42.590;23.364;2023-06-05T02:09:50;91922.31;;;14.28
71807;BMP280;59655;42.590;23.364;2023-06-05T02:12:15;91918.78;;;14.26
71807;BMP280;59655;42.590;23.364;2023-06-05T02:14:41;91920.50;;;14.31
71807;BMP280;59655;42.590;23.364;2023-06-05T02:17:11;91911.53;;;14.36
71807;BMP280;59655;42.590;23.364;2023-06-05T02:19:39;91913.44;;;14.26
71807;BMP280;59655;42.590;23.364;2023-06-05T02:22:04;91913.97;;;14.24
71807;BMP280;59655;42.590;23.364;2023-06-05T02:24:30;91918.31;;;14.20
71807;BMP280;59655;42.590;23.364;2023-06-05T02:26:55;91925.63;;;14.19
71807;BMP280;59655;42.590;23.364;2023-06-05T02:29:23;91920.06;;;14.17
71807;BMP280;59655;42.590;23.364;2023-06-05T02:31:49;91917.78;;;14.21
71807;BMP280;59655;42.590;23.364;2023-06-05T02:34:14;91926.47;;;14.22
71807;BMP280;59655;42.590;23.364;2023-06-05T02:36:42;91922.22;;;14.19
71807;BMP280;59655;42.590;23.364;2023-06-05T02:39:11;91919.94;;;14.15
71807;BMP280;59655;42.590;23.364;2023-06-05T02:41:36;91922.59;;;14.15
71807;BMP280;59655;42.590;23.364;2023-06-05T02:44:02;91920.28;;;14.19
71807;BMP280;59655;42.590;23.364;2023-06-05T02:46:27;91918.47;;;14.22
71807;BMP280;59655;42.590;23.364;2023-06-05T02:48:53;91922.06;;;14.17
71807;BMP280;59655;42.590;23.364;2023-06-05T02:51:18;91921.44;;;14.09
71807;BMP280;59655;42.590;23.364;2023-06-05T02:53:43;91928.19;;;14.10
71807;BMP280;59655;42.590;23.364;2023-06-05T02:56:09;91929.22;;;14.14
71807;BMP280;59655;42.590;23.364;2023-06-05T02:58:35;91925.09;;;14.13
71807;BMP280;59655;42.590;23.364;2023-06-05T03:01:01;91926.84;;;14.18
71807;BMP280;59655;42.590;23.364;2023-06-05T03:03:32;91925.28;;;14.15
71807;BMP280;59655;42.590;23.364;2023-06-05T03:06:01;91922.84;;;14.10
71807;BMP280;59655;42.590;23.364;2023-06-05T03:08:31;91921.03;;;14.12
71807;BMP280;59655;42.590;23.364;2023-06-05T03:10:57;91923.16;;;14.14
71807;BMP280;59655;42.590;23.364;2023-06-05T03:13:22;91925.03;;;14.03
71807;BMP280;59655;42.590;23.364;2023-06-05T03:15:48;91931.28;;;13.98
71807;BMP280;59655;42.590;23.364;2023-06-05T03:18:14;91933.94;;;13.98
71807;BMP280;59655;42.590;23.364;2023-06-05T03:20:39;91926.44;;;14.04
71807;BMP280;59655;42.590;23.364;2023-06-05T03:23:04;91924.41;;;14.13
71807;BMP280;59655;42.590;23.364;2023-06-05T03:25:30;91928.50;;;14.14
71807;BMP280;59655;42.590;23.364;2023-06-05T03:27:55;91930.38;;;14.21
71807;BMP280;59655;42.590;23.364;2023-06-05T03:30:21;91929.50;;;14.18
71807;BMP280;59655;42.590;23.364;2023-06-05T03:32:47;91940.06;;;14.16
71807;BMP280;59655;42.590;23.364;2023-06-05T03:35:12;91939.50;;;14.18
71807;BMP280;59655;42.590;23.364;2023-06-05T03:37:37;91945.69;;;14.20
71807;BMP280;59655;42.590;23.364;2023-06-05T03:40:03;91940.91;;;14.19
71807;BMP280;59655;42.590;23.364;2023-06-05T03:42:30;91941.56;;;14.27
71807;BMP280;59655;42.590;23.364;2023-06-05T03:44:55;91945.25;;;14.32
71807;BMP280;59655;42.590;23.364;2023-06-05T03:47:21;91948.53;;;14.22
71807;BMP280;59655;42.590;23.364;2023-06-05T03:49:46;91949.94;;;14.23
71807;BMP280;59655;42.590;23.364;2023-06-05T03:52:13;91946.16;;;14.26
71807;BMP280;59655;42.590;23.364;2023-06-05T03:54:40;91947.34;;;14.16
71807;BMP280;59655;42.590;23.364;2023-06-05T03:57:06;91956.16;;;14.26
71807;BMP280;59655;42.590;23.364;2023-06-05T03:59:34;91955.75;;;14.29
71807;BMP280;59655;42.590;23.364;2023-06-05T04:02:00;91957.16;;;14.31
71807;BMP280;59655;42.590;23.364;2023-06-05T04:04:25;91954.13;;;14.34
71807;BMP280;59655;42.590;23.364;2023-06-05T04:06:54;91954.13;;;14.34
71807;BMP280;59655;42.590;23.364;2023-06-05T04:09:19;91946.84;;;14.35
71807;BMP280;59655;42.590;23.364;2023-06-05T04:11:45;91954.66;;;14.33
71807;BMP280;59655;42.590;23.364;2023-06-05T04:14:11;91953.41;;;14.34
71807;BMP280;59655;42.590;23.364;2023-06-05T04:16:37;91945.72;;;14.38
71807;BMP280;59655;42.590;23.364;2023-06-05T04:19:09;91948.31;;;14.45
71807;BMP280;59655;42.590;23.364;2023-06-05T04:21:38;91946.50;;;14.48
71807;BMP280;59655;42.590;23.364;2023-06-05T04:24:12;91953.59;;;14.53
71807;BMP280;59655;42.590;23.364;2023-06-05T04:26:39;91951.22;;;14.57
71807;BMP280;59655;42.590;23.364;2023-06-05T04:29:08;91947.63;;;14.62
71807;BMP280;59655;42.590;23.364;2023-06-05T04:31:45;91950.06;;;14.68
71807;BMP280;59655;42.590;23.364;2023-06-05T04:34:11;91956.41;;;14.72
71807;BMP280;59655;42.590;23.364;2023-06-05T04:36:36;91954.19;;;14.79
71807;BMP280;59655;42.590;23.364;2023-06-05T04:39:03;91948.63;;;14.84
71807;BMP280;59655;42.590;23.364;2023-06-05T04:41:42;91944.16;;;14.87
71807;BMP280;59655;42.590;23.364;2023-06-05T04:44:15;91941.06;;;14.90
71807;BMP280;59655;42.590;23.364;2023-06-05T04:46:44;91941.97;;;14.93
71807;BMP280;59655;42.590;23.364;2023-06-05T04:49:14;91947.06;;;14.99
71807;BMP280;59655;42.590;23.364;2023-06-05T04:51:41;91947.53;;;15.05
71807;BMP280;59655;42.590;23.364;2023-06-05T04:54:09;91951.03;;;15.07
71807;BMP280;59655;42.590;23.364;2023-06-05T04:56:34;91949.41;;;15.12
71807;BMP280;59655;42.590;23.364;2023-06-05T04:59:01;91953.06;;;15.16
71807;BMP280;59655;42.590;23.364;2023-06-05T05:01:28;91951.97;;;15.19
71807;BMP280;59655;42.590;23.364;2023-06-05T05:03:53;91955.50;;;15.22
71807;BMP280;59655;42.590;23.364;2023-06-05T05:06:20;91951.16;;;15.27
71807;BMP280;59655;42.590;23.364;2023-06-05T05:08:46;91951.44;;;15.31
71807;BMP280;59655;42.590;23.364;2023-06-05T05:11:17;91942.50;;;15.36
71807;BMP280;59655;42.590;23.364;2023-06-05T05:13:43;91943.66;;;15.43
71807;BMP280;59655;42.590;23.364;2023-06-05T05:16:09;91945.91;;;15.46
71807;BMP280;59655;42.590;23.364;2023-06-05T05:18:37;91949.44;;;15.49
71807;BMP280;59655;42.590;23.364;2023-06-05T05:21:03;91955.13;;;15.53
71807;BMP280;59655;42.590;23.364;2023-06-05T05:23:32;91954.69;;;15.56
71807;BMP280;59655;42.590;23.364;2023-06-05T05:25:58;91953.03;;;15.61
71807;BMP280;59655;42.590;23.364;2023-06-05T05:28:24;91951.22;;;15.63
71807;BMP280;59655;42.590;23.364;2023-06-05T05:30:51;91946.00;;;15.66
71807;BMP280;59655;42.590;23.364;2023-06-05T05:33:16;91940.66;;;15.66
71807;BMP280;59655;42.590;23.364;2023-06-05T05:35:42;91954.91;;;15.68
71807;BMP280;59655;42.590;23.364;2023-06-05T05:38:07;91949.00;;;15.70
71807;BMP280;59655;42.590;23.364;2023-06-05T05:40:32;91955.19;;;15.72
71807;BMP280;59655;42.590;23.364;2023-06-05T05:42:58;91954.09;;;15.75
71807;BMP280;59655;42.590;23.364;2023-06-05T05:45:23;91958.16;;;15.76
71807;BMP280;59655;42.590;23.364;2023-06-05T05:47:49;91949.56;;;15.78
71807;BMP280;59655;42.590;23.364;2023-06-05T05:50:14;91952.53;;;15.82
71807;BMP280;59655;42.590;23.364;2023-06-05T05:52:39;91947.19;;;15.82
71807;BMP280;59655;42.590;23.364;2023-06-05T05:55:05;91949.47;;;15.85
71807;BMP280;59655;42.590;23.364;2023-06-05T05:57:31;91944.41;;;15.90
71807;BMP280;59655;42.590;23.364;2023-06-05T05:59:57;91940.03;;;15.94
71807;BMP280;59655;42.590;23.364;2023-06-05T06:02:22;91943.03;;;15.98
71807;BMP280;59655;42.590;23.364;2023-06-05T06:04:48;91948.69;;;16.02
71807;BMP280;59655;42.590;23.364;2023-06-05T06:07:14;91948.97;;;16.06
71807;BMP280;59655;42.590;23.364;2023-06-05T06:09:39;91953.16;;;16.09
71807;BMP280;59655;42.590;23.364;2023-06-05T06:12:07;91952.91;;;16.15
71807;BMP280;59655;42.590;23.364;2023-06-05T06:14:33;91960.41;;;16.17
71807;BMP280;59655;42.590;23.364;2023-06-05T06:17:00;91961.94;;;16.20
71807;BMP280;59655;42.590;23.364;2023-06-05T06:19:26;91958.59;;;16.29
71807;BMP280;59655;42.590;23.364;2023-06-05T06:21:56;91953.69;;;16.35
71807;BMP280;59655;42.590;23.364;2023-06-05T06:24:21;91955.75;;;16.37
71807;BMP280;59655;42.590;23.364;2023-06-05T06:26:48;91958.44;;;16.37
71807;BMP280;59655;42.590;23.364;2023-06-05T06:29:17;91954.66;;;16.40
71807;BMP280;59655;42.590;23.364;2023-06-05T06:31:45;91957.06;;;16.45
71807;BMP280;59655;42.590;23.364;2023-06-05T06:34:11;91953.97;;;16.49
71807;BMP280;59655;42.590;23.364;2023-06-05T06:36:37;91950.13;;;16.52
71807;BMP280;59655;42.590;23.364;2023-06-05T06:39:09;91950.28;;;16.54
71807;BMP280;59655;42.590;23.364;2023-06-05T06:41:35;91953.13;;;16.56
71807;BMP280;59655;42.590;23.364;2023-06-05T06:44:01;91948.59;;;16.59
71807;BMP280;59655;42.590;23.364;2023-06-05T06:46:26;91944.22;;;16.63
71807;BMP280;59655;42.590;23.364;2023-06-05T06:48:52;91945.38;;;16.60
71807;BMP280;59655;42.590;23.364;2023-06-05T06:51:17;91942.25;;;16.64
71807;BMP280;59655;42.590;23.364;2023-06-05T06:53:43;91940.72;;;16.70
71807;BMP280;59655;42.590;23.364;2023-06-05T06:56:09;91941.69;;;16.75
71807;BMP280;59655;42.590;23.364;2023-06-05T06:58:35;91941.13;;;16.76
71807;BMP280;59655;42.590;23.364;2023-06-05T07:01:02;91942.94;;;16.84
71807;BMP280;59655;42.590;23.364;2023-06-05T07:03:28;91942.13;;;16.91
71807;BMP280;59655;42.590;23.364;2023-06-05T07:05:53;91939.44;;;16.91
71807;BMP280;59655;42.590;23.364;2023-06-05T07:08:19;91937.03;;;16.95
71807;BMP280;59655;42.590;23.364;2023-06-05T07:10:45;91934.34;;;16.95
71807;BMP280;59655;42.590;23.364;2023-06-05T07:13:10;91941.97;;;16.98
71807;BMP280;59655;42.590;23.364;2023-06-05T07:15:36;91935.31;;;16.99
71807;BMP280;59655;42.590;23.364;2023-06-05T07:18:01;91945.47;;;17.01
71807;BMP280;59655;42.590;23.364;2023-06-05T07:20:26;91944.94;;;17.02
71807;BMP280;59655;42.590;23.364;2023-06-05T07:22:52;91942.66;;;17.09
71807;BMP280;59655;42.590;23.364;2023-06-05T07:25:17;91942.06;;;17.10
71807;BMP280;59655;42.590;23.364;2023-06-05T07:27:46;91942.50;;;17.16
71807;BMP280;59655;42.590;23.364;2023-06-05T07:30:11;91940.06;;;17.20
71807;BMP280;59655;42.590;23.364;2023-06-05T07:32:38;91944.59;;;17.28
71807;BMP280;59655;42.590;23.364;2023-06-05T07:35:04;91942.44;;;17.36
71807;BMP280;59655;42.590;23.364;2023-06-05T07:37:30;91950.47;;;17.36
71807;BMP280;59655;42.590;23.364;2023-06-05T07:39:55;91946.06;;;17.40
71807;BMP280;59655;42.590;23.364;2023-06-05T07:42:20;91947.50;;;17.41
71807;BMP280;59655;42.590;23.364;2023-06-05T07:44:46;91948.34;;;17.44
71807;BMP280;59655;42.590;23.364;2023-06-05T07:47:13;91953.13;;;17.45
71807;BMP280;59655;42.590;23.364;2023-06-05T07:49:38;91960.19;;;17.51
71807;BMP280;59655;42.590;23.364;2023-06-05T07:52:04;91960.59;;;17.57
71807;BMP280;59655;42.590;23.364;2023-06-05T07:54:29;91949.56;;;17.62
71807;BMP280;59655;42.590;23.364;2023-06-05T07:56:55;91959.56;;;17.71
71807;BMP280;59655;42.590;23.364;2023-06-05T07:59:22;91951.91;;;17.78
71807;BMP280;59655;42.590;23.364;2023-06-05T08:01:53;91959.78;;;17.85
71807;BMP280;59655;42.590;23.364;2023-06-05T08:04:19;91956.47;;;17.97
71807;BMP280;59655;42.590;23.364;2023-06-05T08:06:45;91954.88;;;18.03
71807;BMP280;59655;42.590;23.364;2023-06-05T08:09:10;91960.63;;;18.09
71807;BMP280;59655;42.590;23.364;2023-06-05T08:11:39;91958.81;;;18.12
71807;BMP280;59655;42.590;23.364;2023-06-05T08:14:05;91964.88;;;18.12
71807;BMP280;59655;42.590;23.364;2023-06-05T08:16:32;91962.75;;;18.11
71807;BMP280;59655;42.590;23.364;2023-06-05T08:18:57;91968.81;;;18.11
71807;BMP280;59655;42.590;23.364;2023-06-05T08:21:22;91962.19;;;18.12
71807;BMP280;59655;42.590;23.364;2023-06-05T08:23:48;91966.69;;;18.10
71807;BMP280;59655;42.590;23.364;2023-06-05T08:26:13;91975.78;;;18.05
71807;BMP280;59655;42.590;23.364;2023-06-05T08:28:40;91975.78;;;18.05
71807;BMP280;59655;42.590;23.364;2023-06-05T08:31:09;91974.25;;;18.02
71807;BMP280;59655;42.590;23.364;2023-06-05T08:33:36;91980.78;;;17.99
71807;BMP280;59655;42.590;23.364;2023-06-05T08:36:03;91979.91;;;17.96
71807;BMP280;59655;42.590;23.364;2023-06-05T08:38:29;91978.41;;;17.93
71807;BMP280;59655;42.590;23.364;2023-06-05T08:41:05;91984.78;;;17.88
71807;BMP280;59655;42.590;23.364;2023-06-05T08:43:38;91985.47;;;17.88
71807;BMP280;59655;42.590;23.364;2023-06-05T08:46:09;91986.63;;;17.85
71807;BMP280;59655;42.590;23.364;2023-06-05T08:48:41;91985.63;;;17.81
71807;BMP280;59655;42.590;23.364;2023-06-05T08:51:10;91986.06;;;17.77
71807;BMP280;59655;42.590;23.364;2023-06-05T08:53:41;91981.28;;;17.76
71807;BMP280;59655;42.590;23.364;2023-06-05T08:56:07;91981.19;;;17.74
71807;BMP280;59655;42.590;23.364;2023-06-05T08:58:34;91989.66;;;17.70
71807;BMP280;59655;42.590;23.364;2023-06-05T09:01:00;91989.09;;;17.71
71807;BMP280;59655;42.590;23.364;2023-06-05T09:03:26;91984.97;;;17.70
71807;BMP280;59655;42.590;23.364;2023-06-05T09:05:52;91988.25;;;17.69
71807;BMP280;59655;42.590;23.364;2023-06-05T09:08:27;91989.53;;;17.68
71807;BMP280;59655;42.590;23.364;2023-06-05T09:11:28;91994.50;;;17.62
71807;BMP280;59655;42.590;23.364;2023-06-05T09:13:56;91998.56;;;17.63
71807;BMP280;59655;42.590;23.364;2023-06-05T09:16:24;91993.06;;;17.61
71807;BMP280;59655;42.590;23.364;2023-06-05T09:18:57;91997.47;;;17.56
71807;BMP280;59655;42.590;23.364;2023-06-05T09:21:25;91997.47;;;17.56
71807;BMP280;59655;42.590;23.364;2023-06-05T09:24:16;91998.72;;;17.55
71807;BMP280;59655;42.590;23.364;2023-06-05T09:29:29;92002.53;;;17.52
71807;BMP280;59655;42.590;23.364;2023-06-05T09:31:57;92009.91;;;17.52
71807;BMP280;59655;42.590;23.364;2023-06-05T09:34:27;92007.91;;;17.52
71807;BMP280;59655;42.590;23.364;2023-06-05T09:36:54;91999.16;;;17.52
71807;BMP280;59655;42.590;23.364;2023-06-05T09:39:20;91995.22;;;17.53
71807;BMP280;59655;42.590;23.364;2023-06-05T09:41:47;92005.50;;;17.56
71807;BMP280;59655;42.590;23.364;2023-06-05T09:44:14;92000.16;;;17.56
71807;BMP280;59655;42.590;23.364;2023-06-05T09:47:10;92003.69;;;17.59
71807;BMP280;59655;42.590;23.364;2023-06-05T09:52:03;92006.09;;;17.55
71807;BMP280;59655;42.590;23.364;2023-06-05T09:54:30;92000.84;;;17.57
71807;BMP280;59655;42.590;23.364;2023-06-05T09:57:03;91999.69;;;17.60
71807;BMP280;59655;42.590;23.364;2023-06-05T09:59:35;91995.44;;;17.66
71807;BMP280;59655;42.590;23.364;2023-06-05T10:02:02;92002.69;;;17.64
71807;BMP280;59655;42.590;23.364;2023-06-05T10:04:33;92000.00;;;17.64
71807;BMP280;59655;42.590;23.364;2023-06-05T10:07:03;91997.44;;;17.66
71807;BMP280;59655;42.590;23.364;2023-06-05T10:09:30;91988.25;;;17.69
71807;BMP280;59655;42.590;23.364;2023-06-05T10:11:59;91984.97;;;17.70
71807;BMP280;59655;42.590;23.364;2023-06-05T10:14:24;91993.31;;;17.75
71807;BMP280;59655;42.590;23.364;2023-06-05T10:16:51;91993.56;;;17.79
71807;BMP280;59655;42.590;23.364;2023-06-05T10:19:18;91982.94;;;17.81
71807;BMP280;59655;42.590;23.364;2023-06-05T10:21:47;91987.75;;;17.82
71807;BMP280;59655;42.590;23.364;2023-06-05T10:24:27;91986.50;;;17.83
71807;BMP280;59655;42.590;23.364;2023-06-05T10:27:13;91982.91;;;17.90
71807;BMP280;59655;42.590;23.364;2023-06-05T10:35:29;91980.50;;;17.94
71807;BMP280;59655;42.590;23.364;2023-06-05T10:38:20;91975.00;;;17.92
71807;BMP280;59655;42.590;23.364;2023-06-05T10:40:57;91977.66;;;18.02
71807;BMP280;59655;42.590;23.364;2023-06-05T10:45:54;91973.63;;;18.13
71807;BMP280;59655;42.590;23.364;2023-06-05T10:48:20;91977.53;;;18.22
71807;BMP280;59655;42.590;23.364;2023-06-05T10:50:45;91974.97;;;18.24
71807;BMP280;59655;42.590;23.364;2023-06-05T10:53:46;91965.94;;;18.19
71807;BMP280;59655;42.590;23.364;2023-06-05T10:56:52;91966.03;;;18.31
71807;BMP280;59655;42.590;23.364;2023-06-05T10:59:26;91968.44;;;18.27
71807;BMP280;59655;42.590;23.364;2023-06-05T11:07:20;91959.66;;;18.48
71807;BMP280;59655;42.590;23.364;2023-06-05T11:15:38;91956.34;;;18.59
71807;BMP280;59655;42.590;23.364;2023-06-05T11:18:27;91954.16;;;18.67
71807;BMP280;59655;42.590;23.364;2023-06-05T11:20:54;91949.13;;;18.61
71807;BMP280;59655;42.590;23.364;2023-06-05T11:23:20;91945.13;;;18.62
71807;BMP280;59655;42.590;23.364;2023-06-05T11:25:48;91949.28;;;18.75
71807;BMP280;59655;42.590;23.364;2023-06-05T11:28:40;91936.91;;;18.82
71807;BMP280;59655;42.590;23.364;2023-06-05T11:31:06;91943.22;;;18.86
71807;BMP280;59655;42.590;23.364;2023-06-05T11:33:31;91941.63;;;18.93
71807;BMP280;59655;42.590;23.364;2023-06-05T11:36:05;91931.81;;;18.98
71807;BMP280;59655;42.590;23.364;2023-06-05T11:38:33;91929.97;;;19.00
71807;BMP280;59655;42.590;23.364;2023-06-05T11:40:58;91928.56;;;19.11
71807;BMP280;59655;42.590;23.364;2023-06-05T11:43:24;91933.16;;;19.20
71807;BMP280;59655;42.590;23.364;2023-06-05T11:48:15;91927.63;;;19.18
71807;BMP280;59655;42.590;23.364;2023-06-05T11:50:56;91926.00;;;19.25
71807;BMP280;59655;42.590;23.364;2023-06-05T11:53:22;91931.75;;;19.31
71807;BMP280;59655;42.590;23.364;2023-06-05T11:55:48;91924.50;;;19.33
71807;BMP280;59655;42.590;23.364;2023-06-05T11:58:29;91933.06;;;19.30
71807;BMP280;59655;42.590;23.364;2023-06-05T12:01:08;91926.63;;;19.35
71807;BMP280;59655;42.590;23.364;2023-06-05T12:03:43;91923.94;;;19.35
71807;BMP280;59655;42.590;23.364;2023-06-05T12:06:09;91923.31;;;19.36
71807;BMP280;59655;42.590;23.364;2023-06-05T12:08:34;91920.28;;;19.42
71807;BMP280;59655;42.590;23.364;2023-06-05T12:11:02;91921.81;;;19.45
71807;BMP280;59655;42.590;23.364;2023-06-05T12:13:53;91918.56;;;19.47
71807;BMP280;59655;42.590;23.364;2023-06-05T12:16:30;91916.91;;;19.53
71807;BMP280;59655;42.590;23.364;2023-06-05T12:18:58;91914.56;;;19.71
71807;BMP280;59655;42.590;23.364;2023-06-05T12:21:26;91903.28;;;19.87
71807;BMP280;59655;42.590;23.364;2023-06-05T12:23:59;91905.97;;;20.10
71807;BMP280;59655;42.590;23.364;2023-06-05T12:26:25;91901.22;;;20.22
71807;BMP280;59655;42.590;23.364;2023-06-05T12:29:05;91899.53;;;20.29
71807;BMP280;59655;42.590;23.364;2023-06-05T12:31:34;91897.34;;;20.51
71807;BMP280;59655;42.590;23.364;2023-06-05T12:34:01;91903.16;;;20.85
71807;BMP280;59655;42.590;23.364;2023-06-05T12:36:27;91886.13;;;21.08
71807;BMP280;59655;42.590;23.364;2023-06-05T12:38:54;91886.75;;;21.06
71807;BMP280;59655;42.590;23.364;2023-06-05T12:41:19;91882.81;;;20.95
71807;BMP280;59655;42.590;23.364;2023-06-05T12:43:45;91885.31;;;20.91
71807;BMP280;59655;42.590;23.364;2023-06-05T12:46:10;91886.56;;;20.76
71807;BMP280;59655;42.590;23.364;2023-06-05T12:48:37;91873.09;;;20.90
71807;BMP280;59655;42.590;23.364;2023-06-05T12:51:03;91875.09;;;20.90
71807;BMP280;59655;42.590;23.364;2023-06-05T12:53:28;91872.78;;;21.23
71807;BMP280;59655;42.590;23.364;2023-06-05T12:55:54;91863.16;;;21.07
71807;BMP280;59655;42.590;23.364;2023-06-05T12:58:19;91862.78;;;20.87
71807;BMP280;59655;42.590;23.364;2023-06-05T13:00:45;91880.25;;;20.72
71807;BMP280;59655;42.590;23.364;2023-06-05T13:03:10;91871.28;;;20.55
71807;BMP280;59655;42.590;23.364;2023-06-05T13:05:37;91877.06;;;20.50
71807;BMP280;59655;42.590;23.364;2023-06-05T13:08:03;91872.16;;;20.46
71807;BMP280;59655;42.590;23.364;2023-06-05T13:10:28;91880.66;;;20.41
71807;BMP280;59655;42.590;23.364;2023-06-05T13:12:54;91871.63;;;20.36
71807;BMP280;59655;42.590;23.364;2023-06-05T13:15:19;91867.53;;;20.35
71807;BMP280;59655;42.590;23.364;2023-06-05T13:17:45;91860.63;;;20.32
71807;BMP280;59655;42.590;23.364;2023-06-05T13:20:12;91867.09;;;20.27
71807;BMP280;59655;42.590;23.364;2023-06-05T13:22:41;91864.75;;;20.21
71807;BMP280;59655;42.590;23.364;2023-06-05T13:25:07;91866.88;;;20.23
71807;BMP280;59655;42.590;23.364;2023-06-05T13:27:33;91858.19;;;20.24
71807;BMP280;59655;42.590;23.364;2023-06-05T13:29:59;91868.31;;;20.24
71807;BMP280;59655;42.590;23.364;2023-06-05T13:32:24;91866.53;;;20.17
71807;BMP280;59655;42.590;23.364;2023-06-05T13:34:50;91861.53;;;20.11
71807;BMP280;59655;42.590;23.364;2023-06-05T13:37:16;91861.41;;;20.09
71807;BMP280;59655;42.590;23.364;2023-06-05T13:39:41;91858.50;;;20.05
71807;BMP280;59655;42.590;23.364;2023-06-05T13:42:07;91863.78;;;20.03
71807;BMP280;59655;42.590;23.364;2023-06-05T13:44:33;91868.38;;;20.00
71807;BMP280;59655;42.590;23.364;2023-06-05T13:46:59;91863.94;;;19.93
71807;BMP280;59655;42.590;23.364;2023-06-05T13:49:26;91854.31;;;19.90
71807;BMP280;59655;42.590;23.364;2023-06-05T13:51:52;91868.38;;;19.89
71807;BMP280;59655;42.590;23.364;2023-06-05T13:54:18;91862.19;;;19.86
71807;BMP280;59655;42.590;23.364;2023-06-05T13:56:43;91864.78;;;19.84
71807;BMP280;59655;42.590;23.364;2023-06-05T13:59:08;91859.97;;;19.82
71807;BMP280;59655;42.590;23.364;2023-06-05T14:01:34;91873.31;;;19.80
71807;BMP280;59655;42.590;23.364;2023-06-05T14:03:59;91865.13;;;19.78
71807;BMP280;59655;42.590;23.364;2023-06-05T14:06:25;91861.03;;;19.77
71807;BMP280;59655;42.590;23.364;2023-06-05T14:08:51;91860.22;;;19.75
71807;BMP280;59655;42.590;23.364;2023-06-05T14:11:17;91857.41;;;19.73
71807;BMP280;59655;42.590;23.364;2023-06-05T14:13:42;91858.81;;;19.74
71807;BMP280;59655;42.590;23.364;2023-06-05T14:16:09;91851.22;;;19.70
71807;BMP280;59655;42.590;23.364;2023-06-05T14:18:38;91849.09;;;19.69
71807;BMP280;59655;42.590;23.364;2023-06-05T14:21:03;91848.53;;;19.70
71807;BMP280;59655;42.590;23.364;2023-06-05T14:23:29;91851.09;;;19.68
71807;BMP280;59655;42.590;23.364;2023-06-05T14:25:54;91848.88;;;19.65
71807;BMP280;59655;42.590;23.364;2023-06-05T14:28:19;91851.47;;;19.63